createdAt,value
2017-08-15T00:00:30.185Z,15.30
2017-08-15T00:02:57.783Z,15.20
2017-08-15T00:05:25.296Z,15.20
2017-08-15T00:07:52.832Z,15.20
2017-08-15T00:10:20.401Z,15.20
2017-08-15T00:12:47.945Z,15.20
2017-08-15T00:15:15.478Z,15.20
2017-08-15T00:17:43.307Z,15.20
2017-08-15T00:20:10.840Z,15.30
2017-08-15T00:22:38.371Z,15.30
2017-08-15T00:25:06.191Z,15.30
2017-08-15T00:27:33.725Z,15.30
2017-08-15T00:30:01.309Z,15.30
2017-08-15T00:32:28.882Z,15.20
2017-08-15T00:34:56.410Z,15.30
2017-08-15T00:37:23.945Z,15.30
2017-08-15T00:39:51.489Z,15.30
2017-08-15T00:42:19.287Z,15.30
2017-08-15T00:44:46.816Z,15.30
2017-08-15T00:47:14.371Z,15.30
2017-08-15T00:49:41.946Z,15.20
2017-08-15T00:52:09.468Z,15.20
2017-08-15T00:54:37.016Z,15.10
2017-08-15T00:57:04.596Z,15.10
2017-08-15T00:59:32.421Z,15.00
2017-08-15T01:01:59.957Z,15.00
2017-08-15T01:04:27.488Z,15.00
2017-08-15T01:06:55.111Z,14.90
2017-08-15T01:09:22.652Z,14.80
2017-08-15T01:11:50.202Z,14.80
2017-08-15T01:14:17.751Z,14.70
2017-08-15T01:16:45.284Z,14.70
2017-08-15T01:19:12.832Z,14.80
2017-08-15T01:21:40.367Z,14.60
2017-08-15T01:24:07.914Z,14.50
2017-08-15T01:26:35.469Z,14.50
2017-08-15T01:29:03.001Z,14.30
2017-08-15T01:31:30.547Z,14.30
2017-08-15T01:33:58.079Z,14.20
2017-08-15T01:36:25.642Z,14.30
2017-08-15T01:38:53.177Z,14.30
2017-08-15T01:41:20.725Z,14.30
2017-08-15T01:43:48.261Z,14.20
2017-08-15T01:46:15.798Z,14.10
2017-08-15T01:48:43.349Z,14.20
2017-08-15T01:51:10.877Z,14.20
2017-08-15T01:53:38.426Z,14.30
2017-08-15T01:56:05.996Z,14.30
2017-08-15T01:58:33.553Z,14.40
2017-08-15T02:01:01.347Z,14.50
2017-08-15T02:03:28.880Z,14.40
2017-08-15T02:05:56.413Z,14.40
2017-08-15T02:08:23.953Z,14.40
2017-08-15T02:10:51.495Z,14.40
2017-08-15T02:13:19.311Z,14.30
2017-08-15T02:15:46.854Z,14.30
2017-08-15T02:18:14.381Z,14.20
2017-08-15T02:20:41.925Z,14.20
2017-08-15T02:23:09.446Z,14.30
2017-08-15T02:25:36.993Z,14.20
2017-08-15T02:28:04.529Z,14.30
2017-08-15T02:30:32.078Z,14.20
2017-08-15T02:32:59.624Z,14.30
2017-08-15T02:35:27.148Z,14.40
2017-08-15T02:37:54.708Z,14.30
2017-08-15T02:40:22.253Z,14.40
2017-08-15T02:42:50.031Z,14.40
2017-08-15T02:45:17.569Z,14.30
2017-08-15T02:47:45.106Z,14.30
2017-08-15T02:50:12.634Z,14.30
2017-08-15T02:52:40.157Z,14.20
2017-08-15T02:55:07.687Z,14.20
2017-08-15T02:57:35.209Z,14.10
2017-08-15T03:00:02.772Z,14.10
2017-08-15T03:02:30.329Z,14.10
2017-08-15T03:04:57.869Z,14.00
2017-08-15T03:07:25.419Z,14.00
2017-08-15T03:09:52.960Z,14.00
2017-08-15T03:12:20.501Z,14.00
2017-08-15T03:14:48.038Z,14.10
2017-08-15T03:17:15.600Z,14.00
2017-08-15T03:19:43.134Z,14.00
2017-08-15T03:22:10.661Z,14.00
2017-08-15T03:24:38.200Z,13.90
2017-08-15T03:27:05.713Z,13.90
2017-08-15T03:29:33.244Z,14.00
2017-08-15T03:32:00.785Z,13.90
2017-08-15T03:34:28.319Z,13.90
2017-08-15T03:36:55.860Z,13.90
2017-08-15T03:39:23.630Z,13.80
2017-08-15T03:41:51.217Z,13.80
2017-08-15T03:44:18.839Z,13.70
2017-08-15T03:46:46.416Z,13.70
2017-08-15T03:49:13.948Z,13.70
2017-08-15T03:51:41.505Z,13.70
2017-08-15T03:54:09.058Z,13.70
2017-08-15T03:56:36.602Z,13.80
2017-08-15T03:59:04.150Z,13.70
2017-08-15T04:01:31.677Z,13.60
2017-08-15T04:03:59.197Z,13.60
2017-08-15T04:06:26.721Z,13.60
2017-08-15T04:08:54.505Z,13.60
2017-08-15T04:11:22.033Z,13.60
2017-08-15T04:13:49.582Z,13.60
2017-08-15T04:16:17.134Z,13.60
2017-08-15T04:18:44.653Z,13.60
2017-08-15T04:21:12.201Z,13.70
2017-08-15T04:23:39.737Z,13.70
2017-08-15T04:26:07.282Z,13.70
2017-08-15T04:28:34.828Z,13.70
2017-08-15T04:31:02.352Z,13.60
2017-08-15T04:33:29.880Z,13.70
2017-08-15T04:35:57.406Z,13.60
2017-08-15T04:38:24.950Z,13.60
2017-08-15T04:40:52.469Z,13.70
2017-08-15T04:43:20.017Z,13.60
2017-08-15T04:45:47.539Z,13.60
2017-08-15T04:48:15.064Z,13.50
2017-08-15T04:50:42.601Z,13.50
2017-08-15T04:53:10.152Z,13.40
2017-08-15T04:55:37.692Z,13.40
2017-08-15T04:58:05.534Z,13.50
2017-08-15T05:00:33.056Z,13.60
2017-08-15T05:03:00.596Z,13.80
2017-08-15T05:05:28.142Z,13.90
2017-08-15T05:07:55.663Z,14.10
2017-08-15T05:10:23.303Z,14.20
2017-08-15T05:12:50.819Z,14.40
2017-08-15T05:15:18.359Z,14.50
2017-08-15T05:17:45.886Z,14.60
2017-08-15T05:20:13.433Z,14.60
2017-08-15T05:22:40.969Z,14.60
2017-08-15T05:25:08.776Z,14.70
2017-08-15T05:27:36.309Z,14.70
2017-08-15T05:30:03.839Z,14.80
2017-08-15T05:32:31.383Z,15.00
2017-08-15T05:34:58.929Z,15.20
2017-08-15T05:37:26.468Z,15.50
2017-08-15T05:39:53.980Z,15.80
2017-08-15T05:42:21.515Z,16.10
2017-08-15T05:44:49.034Z,16.40
2017-08-15T05:47:16.838Z,16.60
2017-08-15T05:49:44.372Z,16.80
2017-08-15T05:52:11.904Z,17.00
2017-08-15T05:54:39.473Z,16.80
2017-08-15T05:57:07.034Z,16.80
2017-08-15T05:59:34.614Z,16.70
2017-08-15T06:02:02.154Z,16.70
2017-08-15T06:04:29.708Z,17.00
2017-08-15T06:06:57.255Z,17.20
2017-08-15T06:09:24.787Z,17.40
2017-08-15T06:11:52.309Z,17.80
2017-08-15T06:14:20.112Z,18.20
2017-08-15T06:16:48.129Z,18.40
2017-08-15T06:19:15.720Z,18.50
2017-08-15T06:21:43.330Z,18.50
2017-08-15T06:24:11.063Z,18.60
2017-08-15T06:26:38.614Z,18.60
2017-08-15T06:29:06.157Z,18.80
2017-08-15T06:31:33.762Z,18.90
2017-08-15T06:34:01.301Z,18.90
2017-08-15T06:36:28.851Z,19.00
2017-08-15T06:38:56.393Z,19.20
2017-08-15T06:41:24.187Z,19.20
2017-08-15T06:43:51.742Z,19.30
2017-08-15T06:46:19.283Z,19.30
2017-08-15T06:48:46.825Z,19.40
2017-08-15T06:51:14.346Z,19.40
2017-08-15T06:53:41.896Z,19.50
2017-08-15T06:56:09.424Z,19.70
2017-08-15T06:58:37.016Z,20.00
2017-08-15T07:01:04.587Z,20.30
2017-08-15T07:03:32.144Z,20.50
2017-08-15T07:05:59.708Z,20.50
2017-08-15T07:08:27.255Z,20.70
2017-08-15T07:10:54.820Z,20.90
2017-08-15T07:13:22.413Z,21.00
2017-08-15T07:15:49.965Z,21.20
2017-08-15T07:18:17.769Z,21.60
2017-08-15T07:20:45.312Z,22.10
2017-08-15T07:23:12.871Z,22.70
2017-08-15T07:25:40.431Z,23.30
2017-08-15T07:28:07.984Z,23.70
2017-08-15T07:30:35.534Z,24.20
2017-08-15T07:33:03.160Z,24.60
2017-08-15T07:35:30.716Z,25.00
2017-08-15T07:37:58.277Z,25.30
2017-08-15T07:40:25.844Z,25.20
2017-08-15T07:42:53.392Z,25.40
2017-08-15T07:45:21.007Z,25.80
2017-08-15T07:47:48.546Z,26.00
2017-08-15T07:50:16.076Z,25.90
2017-08-15T07:52:43.658Z,25.90
2017-08-15T07:55:11.192Z,25.70
2017-08-15T07:57:38.762Z,25.20
2017-08-15T08:00:06.306Z,24.90
2017-08-15T08:02:34.094Z,24.70
2017-08-15T08:05:01.630Z,24.30
2017-08-15T08:07:29.172Z,23.90
2017-08-15T08:09:56.962Z,23.60
2017-08-15T08:12:24.550Z,23.30
2017-08-15T08:14:52.160Z,23.00
2017-08-15T08:17:19.731Z,22.70
2017-08-15T08:19:47.344Z,22.60
2017-08-15T08:22:14.954Z,22.60
2017-08-15T08:24:42.817Z,22.50
2017-08-15T08:27:10.417Z,22.40
2017-08-15T08:29:38.073Z,22.50
2017-08-15T08:32:05.662Z,22.50
2017-08-15T08:34:33.278Z,22.60
2017-08-15T08:37:00.908Z,22.80
2017-08-15T08:39:28.483Z,21.20
2017-08-15T08:41:56.124Z,23.10
2017-08-15T08:44:23.689Z,23.20
2017-08-15T08:46:51.245Z,23.30
2017-08-15T08:49:18.880Z,23.40
2017-08-15T08:51:46.717Z,23.50
2017-08-15T08:54:14.266Z,23.60
2017-08-15T08:56:41.818Z,23.50
2017-08-15T08:59:09.372Z,23.50
2017-08-15T09:01:36.893Z,23.50
2017-08-15T09:04:04.488Z,23.50
2017-08-15T09:06:32.051Z,23.30
2017-08-15T09:08:59.603Z,23.00
2017-08-15T09:11:27.170Z,22.90
2017-08-15T09:13:54.739Z,22.80
2017-08-15T09:16:22.279Z,22.90
2017-08-15T09:18:49.818Z,23.10
2017-08-15T09:21:17.348Z,23.20
2017-08-15T09:23:44.882Z,23.40
2017-08-15T09:26:12.715Z,23.80
2017-08-15T09:28:40.241Z,24.10
2017-08-15T09:31:07.787Z,24.40
2017-08-15T09:33:35.340Z,24.70
2017-08-15T09:36:02.865Z,25.00
2017-08-15T09:38:30.443Z,25.30
2017-08-15T09:40:57.989Z,25.50
2017-08-15T09:43:25.540Z,25.30
2017-08-15T09:45:53.102Z,25.30
2017-08-15T09:48:21.122Z,25.30
2017-08-15T09:50:48.675Z,25.50
2017-08-15T09:53:16.250Z,25.80
2017-08-15T09:55:43.831Z,26.00
2017-08-15T09:58:17.081Z,26.00
2017-08-15T10:00:44.674Z,26.20
2017-08-15T10:03:12.215Z,26.10
2017-08-15T10:05:39.830Z,25.80
2017-08-15T10:08:07.453Z,25.30
2017-08-15T10:10:34.991Z,24.80
2017-08-15T10:13:02.607Z,24.70
2017-08-15T10:15:30.237Z,24.70
2017-08-15T10:17:57.929Z,24.70
2017-08-15T10:20:25.557Z,24.70
2017-08-15T10:22:53.202Z,24.40
2017-08-15T10:25:20.771Z,24.30
2017-08-15T10:27:48.405Z,24.00
2017-08-15T10:30:15.990Z,23.90
2017-08-15T10:32:43.538Z,23.80
2017-08-15T10:35:11.143Z,23.70
2017-08-15T10:37:38.720Z,23.50
2017-08-15T10:40:06.308Z,23.40
2017-08-15T10:42:33.906Z,23.40
2017-08-15T10:45:01.449Z,23.40
2017-08-15T10:47:29.287Z,23.40
2017-08-15T10:49:56.822Z,23.50
2017-08-15T10:52:24.402Z,23.60
2017-08-15T10:54:52.016Z,23.70
2017-08-15T10:57:19.622Z,23.80
2017-08-15T10:59:47.205Z,23.40
2017-08-15T11:02:14.783Z,23.30
2017-08-15T11:04:42.569Z,22.90
2017-08-15T11:07:10.198Z,22.70
2017-08-15T11:09:37.853Z,22.70
2017-08-15T11:12:05.456Z,22.70
2017-08-15T11:14:33.001Z,22.70
2017-08-15T11:17:00.609Z,22.70
2017-08-15T11:19:28.189Z,22.70
2017-08-15T11:21:55.768Z,22.60
2017-08-15T11:24:23.438Z,22.60
2017-08-15T11:26:51.082Z,22.60
2017-08-15T11:29:18.954Z,22.60
2017-08-15T11:31:46.783Z,22.50
2017-08-15T11:34:14.347Z,22.50
2017-08-15T11:36:41.927Z,22.50
2017-08-15T11:39:09.536Z,22.50
2017-08-15T11:41:37.121Z,22.70
2017-08-15T11:44:04.797Z,22.80
2017-08-15T11:46:32.373Z,22.80
2017-08-15T11:48:59.975Z,22.70
2017-08-15T11:51:27.514Z,22.70
2017-08-15T11:53:55.082Z,22.60
2017-08-15T11:56:22.646Z,22.40
2017-08-15T11:58:50.193Z,22.30
2017-08-15T12:01:17.735Z,22.10
2017-08-15T12:03:45.276Z,22.10
2017-08-15T12:06:12.853Z,22.00
2017-08-15T12:08:40.412Z,21.90
2017-08-15T12:11:07.996Z,21.80
2017-08-15T12:13:35.580Z,21.80
2017-08-15T12:16:03.127Z,21.80
2017-08-15T12:18:30.722Z,21.80
2017-08-15T12:20:58.299Z,21.60
2017-08-15T12:23:25.853Z,21.50
2017-08-15T12:25:53.432Z,21.20
2017-08-15T12:28:20.981Z,21.10
2017-08-15T12:30:48.508Z,21.00
2017-08-15T12:33:16.068Z,20.90
2017-08-15T12:35:43.604Z,21.00
2017-08-15T12:38:11.137Z,21.10
2017-08-15T12:40:38.655Z,21.20
2017-08-15T12:43:06.465Z,21.40
2017-08-15T12:45:34.004Z,21.70
2017-08-15T12:48:01.541Z,22.00
2017-08-15T12:50:29.132Z,22.40
2017-08-15T12:52:56.662Z,22.80
2017-08-15T12:55:24.486Z,23.20
2017-08-15T12:57:52.032Z,23.20
2017-08-15T13:00:19.569Z,23.30
2017-08-15T13:02:47.149Z,23.30
2017-08-15T13:05:14.702Z,23.20
2017-08-15T13:07:42.252Z,23.20
2017-08-15T13:10:10.531Z,23.10
2017-08-15T13:12:38.076Z,23.10
2017-08-15T13:15:05.639Z,23.10
2017-08-15T13:17:33.211Z,23.00
2017-08-15T13:20:00.772Z,23.00
2017-08-15T13:22:28.400Z,23.10
2017-08-15T13:24:55.980Z,23.10
2017-08-15T13:27:23.505Z,23.10
2017-08-15T13:29:51.026Z,23.10
2017-08-15T13:32:18.584Z,23.10
2017-08-15T13:34:46.129Z,23.20
2017-08-15T13:37:13.690Z,23.20
2017-08-15T13:39:41.232Z,23.20
2017-08-15T13:42:08.824Z,23.30
2017-08-15T13:44:36.370Z,23.30
2017-08-15T13:47:04.174Z,23.30
2017-08-15T13:49:31.705Z,23.20
2017-08-15T13:51:59.239Z,23.20
2017-08-15T13:54:26.803Z,23.10
2017-08-15T13:56:54.344Z,23.10
2017-08-15T13:59:21.886Z,23.00
2017-08-15T14:01:49.406Z,23.00
2017-08-15T14:04:16.953Z,22.90
2017-08-15T14:06:44.500Z,22.90
2017-08-15T14:09:12.328Z,22.80
2017-08-15T14:11:39.867Z,22.70
2017-08-15T14:14:07.524Z,22.60
2017-08-15T14:16:35.188Z,22.60
2017-08-15T14:19:03.730Z,22.60
2017-08-15T14:21:31.306Z,22.50
2017-08-15T14:23:58.852Z,22.50
2017-08-15T14:26:26.526Z,22.60
2017-08-15T14:28:54.053Z,22.70
2017-08-15T14:31:22.262Z,22.80
2017-08-15T14:33:49.793Z,22.90
2017-08-15T14:36:17.318Z,23.10
2017-08-15T14:38:44.893Z,23.30
2017-08-15T14:41:12.440Z,23.40
2017-08-15T14:43:39.996Z,23.30
2017-08-15T14:46:07.556Z,23.10
2017-08-15T14:48:35.119Z,23.00
2017-08-15T14:51:02.671Z,22.80
2017-08-15T14:53:30.222Z,22.80
2017-08-15T14:55:57.767Z,22.90
2017-08-15T14:58:25.357Z,22.90
2017-08-15T15:00:52.911Z,23.00
2017-08-15T15:03:20.445Z,22.90
2017-08-15T15:05:47.988Z,22.90
2017-08-15T15:08:15.669Z,22.90
2017-08-15T15:10:43.441Z,22.80
2017-08-15T15:13:11.063Z,22.90
2017-08-15T15:15:38.923Z,22.90
2017-08-15T15:18:06.572Z,23.00
2017-08-15T15:20:34.212Z,23.00
2017-08-15T15:23:02.192Z,23.00
2017-08-15T15:25:30.534Z,22.80
2017-08-15T15:27:58.397Z,22.90
2017-08-15T15:30:25.945Z,22.80
2017-08-15T15:32:55.703Z,27.00
2017-08-15T15:35:23.348Z,22.70
2017-08-15T15:37:51.764Z,22.80
2017-08-15T15:40:19.344Z,23.10
2017-08-15T15:42:46.868Z,23.60
2017-08-15T15:45:14.415Z,24.70
2017-08-15T15:47:41.960Z,25.50
2017-08-15T15:50:09.521Z,26.30
2017-08-15T15:52:37.075Z,27.10
2017-08-15T15:55:04.613Z,27.50
2017-08-15T15:57:32.154Z,27.40
2017-08-15T15:59:59.699Z,26.90
2017-08-15T16:02:27.229Z,26.10
2017-08-15T16:04:54.850Z,25.60
2017-08-15T16:07:22.432Z,25.10
2017-08-15T16:09:50.038Z,24.60
2017-08-15T16:12:17.583Z,24.10
2017-08-15T16:14:45.414Z,23.90
2017-08-15T16:17:12.995Z,23.80
2017-08-15T16:19:40.525Z,23.60
2017-08-15T16:22:08.095Z,23.40
2017-08-15T16:24:35.648Z,23.30
2017-08-15T16:27:03.216Z,23.30
2017-08-15T16:29:30.769Z,23.10
2017-08-15T16:31:58.288Z,23.00
2017-08-15T16:34:25.825Z,23.10
2017-08-15T16:36:53.375Z,23.00
2017-08-15T16:39:21.203Z,22.90
2017-08-15T16:41:48.735Z,22.80
2017-08-15T16:44:16.260Z,22.80
2017-08-15T16:46:43.821Z,22.80
2017-08-15T16:49:11.347Z,22.70
2017-08-15T16:51:39.167Z,22.70
2017-08-15T16:54:06.699Z,22.70
2017-08-15T16:56:34.257Z,22.90
2017-08-15T16:59:01.811Z,23.40
2017-08-15T17:01:29.362Z,23.80
2017-08-15T17:03:57.192Z,24.00
2017-08-15T17:06:24.744Z,24.10
2017-08-15T17:08:52.868Z,23.90
2017-08-15T17:11:20.433Z,23.60
2017-08-15T17:13:48.041Z,23.50
2017-08-15T17:16:15.627Z,23.40
2017-08-15T17:18:43.218Z,23.20
2017-08-15T17:21:10.841Z,23.20
2017-08-15T17:23:38.363Z,23.00
2017-08-15T17:26:05.900Z,22.80
2017-08-15T17:28:33.482Z,22.70
2017-08-15T17:31:01.022Z,22.60
2017-08-15T17:33:28.565Z,22.50
2017-08-15T17:35:56.117Z,22.40
2017-08-15T17:38:23.669Z,22.40
2017-08-15T17:40:51.240Z,22.30
2017-08-15T17:43:18.790Z,22.30
2017-08-15T17:45:46.314Z,22.20
2017-08-15T17:48:13.892Z,22.10
2017-08-15T17:50:41.451Z,22.00
2017-08-15T17:53:09.027Z,22.00
2017-08-15T17:55:36.953Z,21.90
2017-08-15T17:58:04.800Z,21.90
2017-08-15T18:00:32.366Z,21.80
2017-08-15T18:02:59.886Z,21.80
2017-08-15T18:05:27.451Z,21.80
2017-08-15T18:07:54.990Z,21.80
2017-08-15T18:10:22.567Z,21.70
2017-08-15T18:12:50.150Z,21.70
2017-08-15T18:15:18.126Z,21.60
2017-08-15T18:17:45.661Z,21.60
2017-08-15T18:20:13.261Z,21.50
2017-08-15T18:22:40.856Z,21.50
2017-08-15T18:25:08.443Z,21.50
2017-08-15T18:27:36.218Z,21.30
2017-08-15T18:30:03.829Z,21.20
2017-08-15T18:32:31.721Z,21.20
2017-08-15T18:34:59.292Z,21.10
2017-08-15T18:37:26.896Z,21.10
2017-08-15T18:39:55.317Z,21.10
2017-08-15T18:42:22.898Z,21.10
2017-08-15T18:44:50.449Z,21.10
2017-08-15T18:47:18.006Z,21.10
2017-08-15T18:49:45.563Z,21.00
2017-08-15T18:52:13.116Z,21.00
2017-08-15T18:54:40.680Z,20.90
2017-08-15T18:57:08.240Z,20.90
2017-08-15T18:59:35.800Z,20.90
2017-08-15T19:02:03.368Z,20.80
2017-08-15T19:04:30.923Z,20.80
2017-08-15T19:06:58.766Z,20.70
2017-08-15T19:09:26.307Z,20.70
2017-08-15T19:11:54.031Z,20.60
2017-08-15T19:14:21.741Z,20.60
2017-08-15T19:16:49.414Z,20.50
2017-08-15T19:19:17.181Z,20.60
2017-08-15T19:21:44.820Z,20.50
2017-08-15T19:24:12.712Z,20.40
2017-08-15T19:26:40.492Z,20.40
2017-08-15T19:29:08.154Z,20.30
2017-08-15T19:31:35.789Z,20.30
2017-08-15T19:34:03.453Z,20.30
2017-08-15T19:36:31.287Z,20.30
2017-08-15T19:38:58.902Z,20.60
2017-08-15T19:41:26.852Z,20.30
2017-08-15T19:43:54.924Z,20.40
2017-08-15T19:46:22.590Z,20.30
2017-08-15T19:48:50.273Z,20.40
2017-08-15T19:51:17.891Z,20.30
2017-08-15T19:53:45.563Z,20.30
2017-08-15T19:56:13.230Z,20.30
2017-08-15T19:58:41.188Z,20.30
2017-08-15T20:01:08.732Z,20.20
2017-08-15T20:03:36.382Z,20.20
2017-08-15T20:06:04.020Z,20.20
2017-08-15T20:08:31.627Z,20.30
2017-08-15T20:10:59.545Z,20.20
2017-08-15T20:13:27.225Z,20.20
2017-08-15T20:15:54.937Z,20.10
2017-08-15T20:18:22.579Z,20.10
2017-08-15T20:20:50.240Z,20.10
2017-08-15T20:23:17.908Z,20.10
2017-08-15T20:25:45.672Z,20.10
2017-08-15T20:28:13.322Z,20.10
2017-08-15T20:30:40.992Z,20.10
2017-08-15T20:33:08.663Z,20.10
2017-08-15T20:35:36.254Z,20.10
2017-08-15T20:38:03.908Z,20.10
2017-08-15T20:40:31.538Z,20.20
2017-08-15T20:42:59.190Z,20.10
2017-08-15T20:45:26.788Z,20.10
2017-08-15T20:47:54.628Z,20.00
2017-08-15T20:50:22.277Z,20.00
2017-08-15T20:52:49.953Z,19.90
2017-08-15T20:55:17.614Z,19.80
2017-08-15T20:57:45.258Z,19.80
2017-08-15T21:00:12.945Z,19.70
2017-08-15T21:02:40.557Z,19.70
2017-08-15T21:05:08.427Z,19.60
2017-08-15T21:07:36.123Z,19.50
2017-08-15T21:10:03.789Z,19.40
2017-08-15T21:12:31.406Z,19.30
2017-08-15T21:14:59.036Z,19.20
2017-08-15T21:17:26.757Z,19.20
2017-08-15T21:19:54.353Z,19.10
2017-08-15T21:22:22.299Z,19.10
2017-08-15T21:24:50.006Z,19.00
2017-08-15T21:27:17.594Z,19.10
2017-08-15T21:29:45.260Z,19.00
2017-08-15T21:32:12.918Z,18.90
2017-08-15T21:34:40.571Z,18.90
2017-08-15T21:37:08.240Z,18.90
2017-08-15T21:39:36.271Z,18.90
2017-08-15T21:42:03.945Z,18.90
2017-08-15T21:44:31.661Z,18.90
2017-08-15T21:46:59.266Z,21.10
2017-08-15T21:49:26.821Z,18.70
2017-08-15T21:51:54.369Z,18.70
2017-08-15T21:54:21.931Z,18.70
2017-08-15T21:56:49.775Z,18.60
2017-08-15T21:59:17.396Z,18.60
2017-08-15T22:01:51.434Z,18.60
2017-08-15T22:04:19.016Z,18.50
2017-08-15T22:06:46.548Z,18.60
2017-08-15T22:09:14.953Z,18.50
2017-08-15T22:11:42.481Z,18.50
2017-08-15T22:14:10.009Z,18.50
2017-08-15T22:16:37.578Z,18.40
2017-08-15T22:19:05.397Z,18.40
2017-08-15T22:21:32.974Z,18.40
2017-08-15T22:24:00.521Z,18.40
2017-08-15T22:26:28.106Z,18.30
2017-08-15T22:28:55.703Z,18.20
2017-08-15T22:31:23.241Z,18.20
2017-08-15T22:33:50.770Z,18.20
2017-08-15T22:36:18.327Z,18.20
2017-08-15T22:38:45.861Z,18.20
2017-08-15T22:41:13.413Z,18.20
2017-08-15T22:43:40.977Z,18.10
2017-08-15T22:46:08.517Z,18.10
2017-08-15T22:48:36.054Z,18.00
2017-08-15T22:51:04.705Z,17.90
2017-08-15T22:53:32.540Z,18.00
2017-08-15T22:56:00.082Z,17.90
2017-08-15T22:58:27.619Z,17.80
2017-08-15T23:00:55.168Z,17.80
2017-08-15T23:03:22.706Z,17.80
2017-08-15T23:05:50.252Z,17.70
2017-08-15T23:08:17.776Z,17.70
2017-08-15T23:10:45.602Z,17.70
2017-08-15T23:13:13.121Z,17.60
2017-08-15T23:15:40.646Z,17.60
2017-08-15T23:18:08.206Z,17.60
2017-08-15T23:20:35.824Z,17.60
2017-08-15T23:23:03.401Z,17.50
2017-08-15T23:25:30.987Z,17.50
2017-08-15T23:27:58.823Z,17.50
2017-08-15T23:30:26.366Z,17.40
2017-08-15T23:32:53.888Z,17.30
2017-08-15T23:35:21.430Z,17.30
2017-08-15T23:37:48.961Z,17.30
2017-08-15T23:40:16.569Z,17.20
2017-08-15T23:42:44.088Z,17.20
2017-08-15T23:45:11.625Z,17.20
2017-08-15T23:47:39.179Z,17.20
2017-08-15T23:50:06.711Z,17.10
2017-08-15T23:52:34.457Z,17.20
2017-08-15T23:55:02.061Z,17.10
2017-08-15T23:57:29.596Z,17.10
2017-08-15T23:59:57.109Z,17.00
